Terminal Aerodrome Forecast
Issued by NWS

Home | Current Version | Previous Version | Text Only | Print | Product List | Glossary On
Versions: 1 2 3 4 5 6 7 8 9 10 11 12 13 14 15 16
149
FTUS42 KTBW 010258 AAA
TAFPIE
TAF AMD
KPIE 010258Z 0103/0124 13010G19KT P6SM BKN040 BKN250
     FM010600 14011KT P6SM SCT040 BKN250
     FM011300 16012KT P6SM BKN035
     FM011700 21014G21KT P6SM BKN050 BKN100=

USA.gov is the U.S. government's official web portal to all federal, state and local government web resources and services.